DW0425 Hajer DK current weather conditions

sailwx.info

Wind from 228 at 6 knots gusting 13

Air temperature 28.3° C
Dewpoint 16.9° C

Last reported at 2019-Jun-19 13:46 UTC.
Time now 2019-Jun-19 14:48 UTC

Location: N 54°58' E 008°41'.
View on Google Maps.

See reports from other nearby stations

  
Tides and Currents Weather Stations Pressure Air Temp Water Temp Dewpoint Dewpoint Depression Visibility Wind Speed Wind Dir Waves Ship Positions
date/time (UTC)wind fromknots sea level pressurealtimeterstation pressurevisibilityair tempwater tempwave heightnotes
2019-Jun-19 13:46 228 6 gusting 13 28.3
2019-Jun-19 12:46 162 7 gusting 13 27.8
2019-Jun-19 12:31 132 7 gusting 13 27.8
2019-Jun-19 12:16 127 6 gusting 13 27.8
2019-Jun-19 12:01 129 7 gusting 13 27.2
2019-Jun-19 11:46 146 6 gusting 13 27.2
2019-Jun-19 11:31 180 8 gusting 14 26.7
2019-Jun-19 11:16 098 7 gusting 13 26.7
2019-Jun-19 10:46 133 7 gusting 14 26.7
2019-Jun-19 10:31 113 6 gusting 12 27.2
2019-Jun-19 09:46 085 3 gusting 7 25.6
2019-Jun-19 09:31 086 3 gusting 7 25.6
2019-Jun-19 09:16 095 4 gusting 7 24.4
2019-Jun-19 08:46 098 6 gusting 9 25.0
2019-Jun-19 08:16 111 5 gusting 8 23.3
2019-Jun-19 08:01 091 6 gusting 10 22.8
2019-Jun-19 07:46 082 6 gusting 12 22.2
2019-Jun-19 07:01 103 7 gusting 13 20.6
2019-Jun-19 06:31 074 6 gusting 12 20.0
2019-Jun-19 06:01 078 5 gusting 8 17.8
2019-Jun-19 05:31 077 4 gusting 6 16.7
2019-Jun-19 05:01 065 3 gusting 6 16.1
2019-Jun-19 04:46 065 2 gusting 4 15.6
2019-Jun-19 04:31 065 2 gusting 3 15.6
2019-Jun-19 04:16 065 2 gusting 3 15.6
2019-Jun-19 03:46 065 1 gusting 2 15.0
2019-Jun-19 03:16 065 3 gusting 6 14.4
2019-Jun-19 02:16 034 2 gusting 4 13.3
2019-Jun-19 01:46 034 3 gusting 4 13.9
2019-Jun-19 01:31 020 3 gusting 5 13.9
2019-Jun-19 01:16 337 2 gusting 3 13.9
2019-Jun-19 00:46 337 1 gusting 3 13.9
2019-Jun-19 00:31 337 1 gusting 3 13.3
2019-Jun-19 00:16 337 0 gusting 2 13.9
2019-Jun-19 00:01 337 1 gusting 3 13.9
2019-Jun-18 23:31 337 2 gusting 5 13.9
2019-Jun-18 23:16 330 2 gusting 3 14.4
2019-Jun-18 23:01 330 1 gusting 2 14.4
2019-Jun-18 22:31 330 0 gusting 2 14.4
2019-Jun-18 21:46 330 1 gusting 2 15.0
2019-Jun-18 21:16 330 1 gusting 2 15.6
2019-Jun-18 21:01 330 0 gusting 1 16.1
2019-Jun-18 20:46 330 0 gusting 1 16.1
2019-Jun-18 20:01 330 1 gusting 3 16.7
2019-Jun-18 19:46 330 1 gusting 3 17.2
2019-Jun-18 19:16 330 2 gusting 5 18.3
2019-Jun-18 19:01 330 2 gusting 5 18.3
2019-Jun-18 18:46 336 3 gusting 6 19.4
2019-Jun-18 18:31 340 2 gusting 5 19.4
2019-Jun-18 18:16 339 3 gusting 6 20.0
2019-Jun-18 17:46 334 4 gusting 6 20.0
2019-Jun-18 17:01 327 5 gusting 8 20.0
2019-Jun-18 16:46 321 4 gusting 8 20.0
2019-Jun-18 16:31 322 5 gusting 10 20.6
2019-Jun-18 16:16 300 6 gusting 12 21.1
2019-Jun-18 16:01 319 7 gusting 13 21.1
2019-Jun-18 15:46 302 6 gusting 11 21.1
2019-Jun-18 15:31 317 6 gusting 11 20.6
2019-Jun-18 15:16 318 6 gusting 11 21.7
2019-Jun-18 15:01 306 6 gusting 10 22.2
2019-Jun-18 14:31 301 5 gusting 8 21.7
2019-Jun-18 14:16 271 6 gusting 9 22.2
2019-Jun-18 13:46 281 4 gusting 7 22.8
2019-Jun-18 12:46 257 6 gusting 10 23.3
2019-Jun-18 12:31 261 6 gusting 10 23.9
2019-Jun-18 12:16 254 6 gusting 11 23.9
2019-Jun-18 11:46 219 5 gusting 10 25.6
2019-Jun-18 11:31 219 5 gusting 9 25.6
2019-Jun-18 11:01 196 4 gusting 7 25.6
2019-Jun-18 10:01 239 4 gusting 7 24.4
2019-Jun-18 09:46 167 4 gusting 6 24.4
2019-Jun-18 08:46 148 4 gusting 7 22.8
2019-Jun-18 08:16 180 5 gusting 8 22.2
2019-Jun-18 08:01 162 4 gusting 8 21.7
2019-Jun-18 07:31 185 3 gusting 7 20.6
2019-Jun-18 07:16 189 4 gusting 7 20.6
2019-Jun-18 07:01 198 4 gusting 9 21.1
2019-Jun-18 06:46 180 4 gusting 6 20.0
2019-Jun-18 06:31 171 3 gusting 6 20.0
2019-Jun-18 06:16 161 4 gusting 6 19.4
2019-Jun-18 05:46 141 2 gusting 5 18.9
2019-Jun-18 05:31 141 3 gusting 7 18.3
2019-Jun-18 05:16 144 4 gusting 7 17.8
2019-Jun-18 05:01 145 4 gusting 6 17.2
2019-Jun-18 04:31 142 4 gusting 6 16.7
2019-Jun-18 04:16 142 4 gusting 7 16.1
2019-Jun-18 03:46 136 3 gusting 6 15.0
2019-Jun-18 01:46 131 4 gusting 7 15.6
2019-Jun-18 01:31 132 4 gusting 7 15.6
2019-Jun-18 01:16 128 4 gusting 8 15.6
2019-Jun-18 01:01 125 3 gusting 7 16.1
2019-Jun-17 23:46 109 4 gusting 6 15.0
2019-Jun-17 23:31 106 3 gusting 6 15.0
2019-Jun-17 23:16 107 4 gusting 6 15.0
2019-Jun-17 23:01 105 4 gusting 6 15.0
2019-Jun-17 22:31 105 4 gusting 6 15.6
2019-Jun-17 22:16 105 4 gusting 7 15.6
2019-Jun-17 22:01 104 4 gusting 6 15.6
2019-Jun-17 21:46 101 4 gusting 6 16.1
2019-Jun-17 21:31 102 4 gusting 6 16.1
2019-Jun-17 21:16 101 4 gusting 6 16.7
2019-Jun-17 20:16 094 4 gusting 6 18.3
2019-Jun-17 20:01 092 4 gusting 6 18.9
2019-Jun-17 19:46 086 4 gusting 7 20.0
2019-Jun-17 19:31 081 4 gusting 6 20.6
2019-Jun-17 19:16 190 1 gusting 2 20.6
2019-Jun-17 18:31 207 1 gusting 3 22.2